Time;durP1;ratioP1;P1;durP2;ratioP2;P2;SDS_P1;SDS_P2;PMS_P1;PMS_P2;Temp;Humidity;BMP_temperature;BMP_pressure;BME280_temperature;BME280_humidity;BME280_pressure;Samples;Min_cycle;Max_cycle;Signal;HPM_P1;HPM_P2
2021/09/21 00:00:07;;;;;;;4.28;2.50;;;;;;;11.40;100.00;101687.16;6251649;23;20003;-79
2021/09/21 00:02:38;;;;;;;4.50;2.70;;;;;;;11.37;100.00;101694.19;6251965;23;20010;-79
2021/09/21 00:05:08;;;;;;;4.18;2.78;;;;;;;11.19;100.00;101698.06;6216535;23;20007;-79
2021/09/21 00:07:38;;;;;;;5.28;2.78;;;;;;;11.14;100.00;101702.50;6251608;23;20090;-79
2021/09/21 00:10:10;;;;;;;7.53;3.38;;;;;;;11.08;100.00;101705.25;6250839;23;20444;-79
2021/09/21 00:12:40;;;;;;;4.28;2.80;;;;;;;11.09;100.00;101701.75;6251319;23;20003;-79
2021/09/21 00:15:15;;;;;;;4.47;2.75;;;;;;;11.04;100.00;101703.59;6251215;23;20074;-79
2021/09/21 00:17:47;;;;;;;4.97;2.80;;;;;;;11.06;100.00;101711.41;6252627;23;20008;-79
2021/09/21 00:20:18;;;;;;;5.53;2.45;;;;;;;10.98;100.00;101712.44;6251602;23;20015;-79
2021/09/21 00:22:49;;;;;;;5.90;2.95;;;;;;;10.94;100.00;101711.66;6251974;23;20003;-79
2021/09/21 00:25:19;;;;;;;4.35;2.80;;;;;;;10.99;100.00;101714.19;6216671;23;20043;-79
2021/09/21 00:27:49;;;;;;;5.18;2.95;;;;;;;11.30;100.00;101709.16;6246185;23;20599;-79
2021/09/21 00:30:21;;;;;;;4.32;3.03;;;;;;;11.21;100.00;101711.09;6216776;23;20443;-79
2021/09/21 00:33:01;;;;;;;6.53;2.72;;;;;;;11.07;100.00;101716.63;6252405;23;20090;-79
2021/09/21 00:35:34;;;;;;;4.82;2.83;;;;;;;11.19;100.00;101707.66;6217622;23;20567;-79
2021/09/21 00:38:04;;;;;;;5.20;2.72;;;;;;;11.24;100.00;101708.47;6252253;23;20344;-79
2021/09/21 00:40:35;;;;;;;6.40;2.58;;;;;;;11.48;100.00;101706.16;6252652;23;20010;-79
2021/09/21 00:43:05;;;;;;;7.30;2.83;;;;;;;11.48;100.00;101711.41;6252692;23;19999;-79
2021/09/21 00:45:37;;;;;;;5.40;3.03;;;;;;;11.33;100.00;101711.75;6252766;23;20075;-79
2021/09/21 00:48:07;;;;;;;4.78;3.28;;;;;;;11.28;100.00;101713.56;6218905;23;20444;-79
2021/09/21 00:50:38;;;;;;;4.38;2.45;;;;;;;11.27;100.00;101706.63;6252057;23;20006;-79
2021/09/21 00:53:08;;;;;;;5.68;2.85;;;;;;;11.27;100.00;101716.25;6253088;23;20054;-79
2021/09/21 00:55:39;;;;;;;8.30;3.17;;;;;;;11.37;100.00;101713.41;6252248;23;20003;-79
2021/09/21 00:58:09;;;;;;;6.00;3.28;;;;;;;11.40;100.00;101717.69;6217828;23;20431;-79
2021/09/21 01:00:39;;;;;;;6.68;3.28;;;;;;;11.47;100.00;101724.53;6254160;23;20049;-80
2021/09/21 01:03:10;;;;;;;4.00;2.90;;;;;;;11.44;100.00;101727.22;6254982;23;19995;-79
2021/09/21 01:05:40;;;;;;;6.30;3.38;;;;;;;11.39;100.00;101727.31;6218802;23;20003;-79
2021/09/21 01:08:10;;;;;;;10.32;3.45;;;;;;;11.36;100.00;101729.13;6253304;23;20030;-79
2021/09/21 01:10:41;;;;;;;5.28;3.15;;;;;;;11.36;100.00;101724.78;6218472;23;20460;-79
2021/09/21 01:13:11;;;;;;;5.10;3.42;;;;;;;11.47;100.00;101729.78;6218374;23;20014;-79
2021/09/21 01:15:42;;;;;;;5.07;3.10;;;;;;;11.59;100.00;101738.25;6241148;23;20035;-79
2021/09/21 01:18:12;;;;;;;5.35;3.22;;;;;;;11.53;100.00;101733.13;6254265;23;20003;-79
2021/09/21 01:20:42;;;;;;;4.93;3.05;;;;;;;11.68;100.00;101727.59;6252992;23;20057;-79
2021/09/21 01:23:16;;;;;;;4.63;3.35;;;;;;;11.61;100.00;101727.78;6218905;23;20000;-79
2021/09/21 01:25:46;;;;;;;5.10;3.03;;;;;;;11.58;100.00;101722.59;6253038;23;20003;-79
2021/09/21 01:28:16;;;;;;;5.07;3.50;;;;;;;11.63;100.00;101715.50;6219139;23;20003;-79
2021/09/21 01:30:46;;;;;;;5.53;3.30;;;;;;;11.74;100.00;101717.00;6253559;23;20243;-79
2021/09/21 01:33:21;;;;;;;6.75;3.42;;;;;;;11.85;100.00;101725.47;6253101;23;20057;-79
2021/09/21 01:35:51;;;;;;;4.50;3.17;;;;;;;11.83;100.00;101716.78;6217826;23;20014;-79
2021/09/21 01:38:21;;;;;;;5.25;2.92;;;;;;;11.80;100.00;101713.38;6217778;23;20007;-79
2021/09/21 01:40:52;;;;;;;4.63;2.90;;;;;;;11.71;100.00;101719.69;6253319;23;20003;-79
2021/09/21 01:43:23;;;;;;;4.57;2.88;;;;;;;11.87;100.00;101725.44;6253755;23;20029;-80
2021/09/21 01:45:53;;;;;;;6.35;3.08;;;;;;;11.59;100.00;101719.94;6218546;23;19999;-80
2021/09/21 01:48:23;;;;;;;8.15;2.92;;;;;;;11.61;100.00;101722.53;6218520;23;20003;-79
2021/09/21 01:51:02;;;;;;;4.40;2.90;;;;;;;11.60;100.00;101721.66;6253522;23;20468;-79
2021/09/21 01:53:50;;;;;;;6.22;3.00;;;;;;;11.64;100.00;101706.75;6217921;23;20007;-80
2021/09/21 01:59:10;;;;;;;5.47;2.90;;;;;;;11.81;100.00;101715.94;6254014;23;20014;-80
2021/09/21 02:01:40;;;;;;;4.88;2.70;;;;;;;11.82;100.00;101715.03;6253840;23;20003;-80
2021/09/21 02:04:10;;;;;;;6.38;3.05;;;;;;;11.83;100.00;101715.91;6218640;23;20010;-80
2021/09/21 02:06:41;;;;;;;4.22;2.83;;;;;;;11.69;100.00;101716.25;6254130;23;20013;-80
2021/09/21 02:09:14;;;;;;;5.13;2.80;;;;;;;11.62;100.00;101716.41;6254356;23;20010;-79
2021/09/21 02:11:46;;;;;;;6.50;2.95;;;;;;;11.77;100.00;101709.06;6241740;23;20065;-79
2021/09/21 02:14:18;;;;;;;5.45;3.03;;;;;;;11.90;100.00;101712.25;6252105;23;20077;-79
2021/09/21 02:16:54;;;;;;;4.40;2.67;;;;;;;11.75;100.00;101717.88;6253857;23;20003;-80
2021/09/21 02:19:24;;;;;;;4.57;2.97;;;;;;;11.74;100.00;101709.13;6252370;23;20352;-79
2021/09/21 02:21:55;;;;;;;5.57;2.78;;;;;;;11.59;100.00;101714.69;6252988;23;20078;-80
2021/09/21 02:24:25;;;;;;;5.10;2.90;;;;;;;11.59;100.00;101713.84;6253082;23;20026;-79
2021/09/21 02:26:56;;;;;;;4.63;2.92;;;;;;;11.65;100.00;101711.94;6254534;23;20045;-80
2021/09/21 02:29:27;;;;;;;4.82;2.97;;;;;;;11.46;100.00;101718.44;6252957;23;20058;-79
2021/09/21 02:31:57;;;;;;;6.32;3.33;;;;;;;11.30;100.00;101716.16;6218349;23;20034;-80
2021/09/21 02:34:27;;;;;;;4.13;2.80;;;;;;;11.42;100.00;101721.16;6253008;23;20612;-79
2021/09/21 02:36:57;;;;;;;4.82;2.63;;;;;;;11.51;100.00;101726.19;6251987;23;20030;-79
2021/09/21 02:39:28;;;;;;;6.47;3.30;;;;;;;11.54;100.00;101728.75;6253005;23;20003;-79
2021/09/21 02:41:58;;;;;;;5.40;3.38;;;;;;;11.54;100.00;101727.00;6217476;23;20022;-80
2021/09/21 02:44:28;;;;;;;5.38;3.60;;;;;;;11.52;100.00;101733.16;6217678;23;20018;-79
2021/09/21 02:46:59;;;;;;;6.80;3.88;;;;;;;11.52;100.00;101738.38;6253832;23;20003;-80
2021/09/21 02:49:31;;;;;;;6.38;3.90;;;;;;;11.55;100.00;101739.19;6253147;23;20063;-80
2021/09/21 02:52:01;;;;;;;6.70;3.97;;;;;;;11.46;100.00;101738.53;6241221;23;20054;-80
2021/09/21 02:54:32;;;;;;;5.88;3.47;;;;;;;11.63;100.00;101742.53;6252569;23;20007;-79
2021/09/21 02:57:02;;;;;;;5.28;3.55;;;;;;;11.72;100.00;101739.75;6253993;23;20010;-79
2021/09/21 02:59:32;;;;;;;6.22;3.75;;;;;;;11.81;100.00;101741.28;6253667;23;20000;-80
2021/09/21 03:02:03;;;;;;;5.03;3.67;;;;;;;11.91;100.00;101741.06;6253372;23;20014;-79
2021/09/21 03:04:37;;;;;;;5.13;3.30;;;;;;;11.87;100.00;101743.75;6253547;23;20006;-79
2021/09/21 03:07:11;;;;;;;5.83;3.60;;;;;;;11.79;100.00;101743.94;6219403;23;20340;-79
2021/09/21 03:12:56;;;;;;;6.18;3.50;;;;;;;11.92;100.00;101745.41;6253412;23;20018;-80
2021/09/21 03:18:09;;;;;;;5.25;3.65;;;;;;;11.94;100.00;101748.84;6253251;23;20022;-79
2021/09/21 03:20:40;;;;;;;7.43;3.83;;;;;;;12.01;100.00;101745.19;6217489;23;20437;-80
2021/09/21 03:23:10;;;;;;;6.85;3.95;;;;;;;11.87;100.00;101747.25;6252800;23;20079;-79
2021/09/21 03:25:40;;;;;;;6.68;3.90;;;;;;;11.69;100.00;101750.28;6252886;23;20007;-79
2021/09/21 03:28:11;;;;;;;7.07;4.00;;;;;;;11.50;100.00;101751.53;6218649;23;19999;-80
2021/09/21 03:30:41;;;;;;;7.45;3.95;;;;;;;11.44;100.00;101756.88;6217587;23;20003;-80
2021/09/21 03:33:11;;;;;;;6.05;3.92;;;;;;;11.40;100.00;101751.72;6252501;23;19999;-79
2021/09/21 03:35:42;;;;;;;6.32;3.85;;;;;;;11.37;100.00;101755.28;6252459;23;20075;-80
2021/09/21 03:38:13;;;;;;;8.07;3.90;;;;;;;11.57;100.00;101740.06;6253128;23;20094;-79
2021/09/21 03:40:43;;;;;;;5.85;3.83;;;;;;;11.43;100.00;101744.69;6218322;23;20006;-80
2021/09/21 03:43:14;;;;;;;6.82;3.50;;;;;;;11.49;100.00;101746.31;6253119;23;20044;-79
2021/09/21 03:45:44;;;;;;;7.50;3.90;;;;;;;11.52;100.00;101752.34;6252072;23;20014;-80
2021/09/21 03:48:14;;;;;;;6.28;3.67;;;;;;;11.48;100.00;101755.06;6218030;23;20343;-79
2021/09/21 03:50:45;;;;;;;5.72;3.67;;;;;;;11.41;100.00;101756.09;6253661;23;20014;-79
2021/09/21 03:53:15;;;;;;;6.07;3.50;;;;;;;11.33;100.00;101761.47;6218071;23;20007;-79
2021/09/21 03:55:45;;;;;;;7.35;3.53;;;;;;;11.28;100.00;101772.91;6252359;23;20440;-79
2021/09/21 03:58:15;;;;;;;7.63;3.70;;;;;;;11.27;100.00;101765.97;6253384;23;20010;-80
2021/09/21 04:00:46;;;;;;;7.00;3.95;;;;;;;11.22;100.00;101771.28;6252095;23;20030;-80
2021/09/21 04:03:16;;;;;;;6.82;3.78;;;;;;;11.24;100.00;101768.66;6251361;23;19999;-80
2021/09/21 04:05:46;;;;;;;6.60;3.55;;;;;;;11.37;100.00;101768.38;6251846;23;20000;-80
2021/09/21 04:08:17;;;;;;;6.63;3.75;;;;;;;11.12;100.00;101772.34;6252928;23;20030;-80
2021/09/21 04:10:47;;;;;;;6.25;3.50;;;;;;;11.13;100.00;101781.91;6214732;23;20007;-80
2021/09/21 04:13:17;;;;;;;6.80;3.85;;;;;;;11.08;100.00;101782.91;6253354;23;20062;-80
2021/09/21 04:15:47;;;;;;;5.95;3.60;;;;;;;10.96;100.00;101801.44;6251822;23;20355;-80
2021/09/21 04:18:18;;;;;;;6.57;3.65;;;;;;;11.10;100.00;101807.28;6217819;23;20004;-80
2021/09/21 04:20:48;;;;;;;6.53;3.80;;;;;;;11.09;100.00;101805.56;6252708;23;20003;-80
2021/09/21 04:23:18;;;;;;;6.88;3.95;;;;;;;10.98;100.00;101812.72;6252125;23;20443;-80
2021/09/21 04:25:48;;;;;;;8.75;4.78;;;;;;;10.94;100.00;101805.81;6252256;23;20340;-81
2021/09/21 04:28:20;;;;;;;5.80;3.70;;;;;;;11.06;100.00;101810.81;6252576;23;20008;-80
2021/09/21 04:30:52;;;;;;;7.22;3.95;;;;;;;11.17;100.00;101799.31;6252154;23;20011;-80
2021/09/21 04:33:23;;;;;;;6.05;3.60;;;;;;;11.11;100.00;101796.78;6250979;23;20015;-80
2021/09/21 04:35:53;;;;;;;7.35;3.80;;;;;;;10.94;100.00;101810.19;6251441;23;20530;-80
2021/09/21 04:38:23;;;;;;;5.88;3.70;;;;;;;10.72;100.00;101819.28;6252093;23;20003;-80
2021/09/21 04:40:54;;;;;;;6.75;3.80;;;;;;;10.79;100.00;101823.50;6251617;23;20003;-80
2021/09/21 04:43:24;;;;;;;7.00;3.83;;;;;;;10.60;100.00;101829.94;6217464;23;20027;-80
2021/09/21 04:45:55;;;;;;;7.18;3.97;;;;;;;10.78;100.00;101829.63;6251645;23;20340;-80
2021/09/21 04:48:25;;;;;;;6.75;3.58;;;;;;;10.80;100.00;101822.63;6252415;23;20007;-80
2021/09/21 04:50:55;;;;;;;6.18;3.42;;;;;;;10.88;100.00;101826.00;6252120;23;20070;-80
2021/09/21 04:53:26;;;;;;;6.18;3.67;;;;;;;10.87;100.00;101821.66;6251270;23;20011;-80
2021/09/21 04:55:56;;;;;;;7.03;3.92;;;;;;;11.03;100.00;101827.47;6216274;23;20062;-80
2021/09/21 04:58:26;;;;;;;5.38;3.50;;;;;;;10.94;100.00;101821.53;6251110;23;20087;-80
2021/09/21 05:00:57;;;;;;;8.20;4.00;;;;;;;11.02;100.00;101823.13;6217228;23;20007;-80
2021/09/21 05:03:27;;;;;;;5.10;3.47;;;;;;;10.94;100.00;101831.09;6251704;23;20038;-80
2021/09/21 05:05:57;;;;;;;5.40;3.72;;;;;;;10.87;100.00;101829.50;6218192;23;20062;-80
2021/09/21 05:08:27;;;;;;;6.63;3.67;;;;;;;10.95;100.00;101828.47;6252330;23;20494;-80
2021/09/21 05:10:58;;;;;;;6.10;3.42;;;;;;;11.09;100.00;101822.09;6251761;23;20039;-80
2021/09/21 05:13:28;;;;;;;6.00;3.50;;;;;;;10.80;100.00;101822.63;6216787;23;20217;-80
2021/09/21 05:15:58;;;;;;;6.47;3.55;;;;;;;10.54;100.00;101830.03;6216872;23;20007;-81
2021/09/21 05:18:29;;;;;;;7.05;3.70;;;;;;;10.62;100.00;101829.03;6253417;23;20007;-80
2021/09/21 05:20:59;;;;;;;6.82;3.85;;;;;;;10.60;100.00;101832.53;6253182;23;20007;-80
2021/09/21 05:23:29;;;;;;;5.97;3.50;;;;;;;10.70;100.00;101834.13;6253329;23;20053;-80
2021/09/21 05:26:00;;;;;;;5.95;3.65;;;;;;;10.79;100.00;101836.59;6217350;23;20009;-81
2021/09/21 05:28:30;;;;;;;5.03;3.33;;;;;;;10.76;100.00;101832.28;6253180;23;20383;-80
2021/09/21 05:31:00;;;;;;;6.20;3.58;;;;;;;10.86;100.00;101831.22;6217594;23;20444;-80
2021/09/21 05:33:31;;;;;;;6.97;3.22;;;;;;;10.87;100.00;101842.56;6215523;23;20034;-80
2021/09/21 05:36:01;;;;;;;6.10;3.58;;;;;;;10.80;100.00;101848.78;6251439;23;20533;-80
2021/09/21 05:38:31;;;;;;;7.18;3.50;;;;;;;10.92;100.00;101851.19;6251486;23;20021;-80
2021/09/21 05:41:01;;;;;;;5.57;3.47;;;;;;;10.92;100.00;101851.19;6249065;23;19999;-80
2021/09/21 05:43:32;;;;;;;7.47;3.33;;;;;;;10.92;100.00;101859.94;6209965;23;20126;-80
2021/09/21 05:46:02;;;;;;;5.57;3.40;;;;;;;11.04;100.00;101851.84;6249346;23;20011;-80
2021/09/21 05:48:32;;;;;;;6.28;3.60;;;;;;;10.96;100.00;101851.13;6216992;23;20010;-80
2021/09/21 05:51:03;;;;;;;5.10;3.13;;;;;;;10.89;100.00;101852.09;6252330;23;20030;-80
2021/09/21 05:53:33;;;;;;;5.80;3.30;;;;;;;10.95;100.00;101856.38;6216539;23;20007;-80
2021/09/21 05:56:04;;;;;;;6.47;3.95;;;;;;;11.04;100.00;101860.56;6252227;23;20007;-80
2021/09/21 05:58:34;;;;;;;6.47;3.83;;;;;;;11.15;100.00;101860.38;6252770;23;20003;-80
2021/09/21 06:01:04;;;;;;;6.47;3.58;;;;;;;11.13;100.00;101873.47;6216781;23;20007;-80
2021/09/21 06:03:35;;;;;;;5.53;3.60;;;;;;;11.15;100.00;101866.50;6217673;23;19999;-80
2021/09/21 06:06:05;;;;;;;6.28;3.92;;;;;;;11.01;100.00;101867.59;6252086;23;20008;-80
2021/09/21 06:08:36;;;;;;;6.50;3.83;;;;;;;11.02;100.00;101881.56;6253579;23;20010;-80
2021/09/21 06:11:06;;;;;;;6.07;4.25;;;;;;;11.02;100.00;101877.19;6252575;23;20015;-80
2021/09/21 06:13:36;;;;;;;9.00;4.38;;;;;;;11.12;100.00;101884.84;6252044;23;20372;-80
2021/09/21 06:16:06;;;;;;;6.70;4.05;;;;;;;11.03;100.00;101885.00;6217813;23;20090;-80
2021/09/21 06:18:37;;;;;;;6.40;3.83;;;;;;;10.92;100.00;101885.19;6253470;23;19999;-81
2021/09/21 06:21:07;;;;;;;7.78;4.45;;;;;;;10.90;100.00;101889.59;6251559;23;20007;-80
2021/09/21 06:23:37;;;;;;;6.05;3.85;;;;;;;10.92;100.00;101899.16;6216872;23;20003;-80
2021/09/21 06:26:08;;;;;;;6.38;4.10;;;;;;;11.06;100.00;101900.66;6217324;23;20060;-80
2021/09/21 06:28:39;;;;;;;8.07;4.07;;;;;;;11.18;100.00;101910.94;6251841;23;20068;-80
2021/09/21 06:31:09;;;;;;;7.10;4.07;;;;;;;11.48;100.00;101914.75;6252232;23;20019;-80
2021/09/21 06:33:39;;;;;;;7.07;3.70;;;;;;;11.64;100.00;101904.00;6215489;23;20040;-80
2021/09/21 06:36:10;;;;;;;7.10;4.22;;;;;;;11.40;100.00;101916.63;6251902;23;20010;-80
2021/09/21 06:38:40;;;;;;;7.30;4.18;;;;;;;11.72;100.00;101899.50;6252110;23;20008;-80
2021/09/21 06:41:10;;;;;;;6.65;3.90;;;;;;;12.14;100.00;101908.25;6217166;23;20339;-80
2021/09/21 06:43:41;;;;;;;7.40;4.40;;;;;;;12.47;100.00;101911.03;6251753;23;20102;-80
2021/09/21 06:46:11;;;;;;;7.07;3.92;;;;;;;12.45;100.00;101912.81;6251551;23;20499;-80
2021/09/21 06:48:41;;;;;;;6.82;4.35;;;;;;;12.41;100.00;101924.28;6216330;23;20031;-80
2021/09/21 06:51:12;;;;;;;6.78;3.90;;;;;;;12.50;99.81;101929.31;6216167;23;20478;-80
2021/09/21 06:53:42;;;;;;;6.75;4.10;;;;;;;12.53;97.96;101931.88;6213841;23;20007;-80
2021/09/21 06:56:12;;;;;;;6.10;3.75;;;;;;;12.47;100.00;101929.38;6250690;23;20010;-80
2021/09/21 06:58:43;;;;;;;7.30;4.53;;;;;;;12.74;97.86;101928.78;6250422;23;20003;-80
2021/09/21 07:01:13;;;;;;;9.88;3.92;;;;;;;12.55;100.00;101932.72;6250722;23;20011;-80
2021/09/21 07:03:43;;;;;;;8.05;3.90;;;;;;;12.66;98.82;101933.31;6240259;23;19999;-80
2021/09/21 07:06:13;;;;;;;7.15;4.10;;;;;;;12.74;98.16;101936.66;6250346;23;20004;-80
2021/09/21 07:08:44;;;;;;;9.05;4.20;;;;;;;12.79;98.29;101928.69;6215363;23;20007;-80
2021/09/21 07:11:14;;;;;;;6.13;3.88;;;;;;;12.44;100.00;101934.69;6249665;23;20359;-80
2021/09/21 07:13:44;;;;;;;8.23;4.32;;;;;;;12.90;98.29;101930.16;6214284;23;20010;-80
2021/09/21 07:16:15;;;;;;;7.47;4.60;;;;;;;13.07;96.21;101933.28;6215859;23;20102;-80
2021/09/21 07:18:45;;;;;;;5.88;3.80;;;;;;;12.82;97.78;101937.31;6250205;23;20282;-80
2021/09/21 07:21:15;;;;;;;6.68;4.28;;;;;;;12.53;99.10;101929.25;6251874;23;20004;-80
2021/09/21 07:23:45;;;;;;;7.22;4.20;;;;;;;12.47;100.00;101923.28;6249503;23;20329;-80
2021/09/21 07:26:17;;;;;;;6.78;4.45;;;;;;;12.82;98.71;101925.97;6250519;23;20473;-80
2021/09/21 07:28:47;;;;;;;8.20;4.15;;;;;;;12.74;99.89;101943.63;6216059;23;20007;-80
2021/09/21 07:31:18;;;;;;;6.38;4.38;;;;;;;12.76;100.00;101945.34;6250176;23;20003;-80
2021/09/21 07:33:48;;;;;;;7.68;4.35;;;;;;;12.77;99.34;101944.44;6249947;23;20030;-80
2021/09/21 07:36:18;;;;;;;6.80;4.40;;;;;;;12.85;99.30;101947.72;6250654;23;20007;-80
2021/09/21 07:38:49;;;;;;;6.50;4.00;;;;;;;12.93;99.13;101954.56;6250832;23;20030;-80
2021/09/21 07:41:19;;;;;;;6.97;3.78;;;;;;;13.08;97.17;101948.13;6215195;23;20428;-80
2021/09/21 07:43:49;;;;;;;7.55;4.20;;;;;;;13.27;95.69;101960.75;6214237;23;20456;-80
2021/09/21 07:46:19;;;;;;;7.03;3.80;;;;;;;13.23;96.68;101966.13;6250646;23;20030;-80
2021/09/21 07:48:50;;;;;;;6.80;4.25;;;;;;;13.07;97.13;101959.53;6250239;23;20065;-80
2021/09/21 07:51:20;;;;;;;7.57;4.68;;;;;;;13.43;95.00;101969.13;6250977;23;20057;-80
2021/09/21 07:53:50;;;;;;;5.60;4.10;;;;;;;13.54;95.72;101967.09;6214260;23;20004;-80
2021/09/21 07:56:21;;;;;;;6.57;4.03;;;;;;;13.21;97.24;101971.41;6214921;23;20037;-80
2021/09/21 07:58:52;;;;;;;10.35;5.13;;;;;;;13.07;95.87;101970.88;6249087;23;20042;-80
2021/09/21 08:01:22;;;;;;;6.85;3.80;;;;;;;13.00;98.62;101969.28;6215389;23;20003;-80
2021/09/21 08:03:54;;;;;;;7.05;4.13;;;;;;;13.11;99.54;101982.16;6249802;23;20031;-80
2021/09/21 08:06:25;;;;;;;8.40;4.18;;;;;;;13.42;95.01;101984.00;6216043;23;20019;-80
2021/09/21 08:08:55;;;;;;;7.82;4.60;;;;;;;13.31;93.78;101974.66;6249476;23;20360;-79
2021/09/21 08:11:27;;;;;;;9.13;4.45;;;;;;;13.21;96.99;101971.41;6214285;23;20008;-80
2021/09/21 08:13:57;;;;;;;6.88;3.80;;;;;;;13.51;96.25;101961.91;6248965;23;20566;-80
2021/09/21 08:16:28;;;;;;;8.10;4.78;;;;;;;13.46;95.95;101962.03;6216058;23;20033;-80
2021/09/21 08:18:58;;;;;;;6.90;4.97;;;;;;;13.70;94.96;101964.03;6251660;23;20003;-80
2021/09/21 08:21:28;;;;;;;10.18;5.13;;;;;;;14.07;91.86;101964.75;6251173;23;20232;-80
2021/09/21 08:23:59;;;;;;;6.78;3.92;;;;;;;13.86;89.15;101965.34;6251300;23;20621;-80
2021/09/21 08:26:29;;;;;;;7.57;4.28;;;;;;;13.96;88.82;101968.59;6250125;23;20012;-80
2021/09/21 08:28:59;;;;;;;7.43;4.68;;;;;;;14.13;92.37;101969.00;6250592;23;20000;-80
2021/09/21 08:31:30;;;;;;;9.15;5.38;;;;;;;14.14;91.96;101973.34;6250637;23;20003;-80
2021/09/21 08:34:00;;;;;;;9.60;5.57;;;;;;;14.29;92.05;101975.56;6214623;23;20004;-80
2021/09/21 08:36:31;;;;;;;11.75;6.03;;;;;;;14.20;90.83;101970.56;6215293;23;20034;-80
2021/09/21 08:39:03;;;;;;;9.13;5.30;;;;;;;14.63;87.97;101976.31;6249751;23;20000;-80
2021/09/21 08:41:34;;;;;;;10.68;6.07;;;;;;;14.52;88.03;101988.91;6249457;23;20007;-80
2021/09/21 08:44:04;;;;;;;6.93;4.30;;;;;;;14.49;87.03;101986.38;6249413;23;20003;-80
2021/09/21 08:46:35;;;;;;;7.95;4.45;;;;;;;14.81;89.05;101965.25;6250229;23;20754;-80
2021/09/21 08:49:06;;;;;;;6.22;3.97;;;;;;;14.87;86.33;101990.44;6215949;23;20003;-80
2021/09/21 08:51:36;;;;;;;9.25;4.20;;;;;;;14.65;87.31;101988.53;6214816;23;20082;-80
2021/09/21 08:54:07;;;;;;;5.82;4.05;;;;;;;14.91;84.28;101986.84;6215324;23;20015;-80
2021/09/21 08:56:40;;;;;;;7.18;3.80;;;;;;;14.63;85.81;101994.75;6251002;23;20011;-80
2021/09/21 08:59:12;;;;;;;7.32;4.18;;;;;;;14.55;84.90;101986.19;6251017;23;20106;-80
2021/09/21 09:01:46;;;;;;;8.75;4.60;;;;;;;14.62;85.34;101977.22;6250687;23;20010;-80
2021/09/21 09:04:17;;;;;;;7.50;4.32;;;;;;;14.49;84.83;101984.63;6215877;23;20013;-80
2021/09/21 09:06:54;;;;;;;7.22;4.20;;;;;;;14.85;85.49;101986.16;6215965;23;20010;-80
2021/09/21 09:09:27;;;;;;;5.50;3.67;;;;;;;14.63;84.98;101992.97;6215857;23;20776;-80
2021/09/21 09:11:59;;;;;;;6.53;4.00;;;;;;;14.87;84.58;101987.81;6251637;23;20096;-80
2021/09/21 09:14:33;;;;;;;7.05;4.20;;;;;;;14.56;85.80;101995.84;6252212;23;20043;-80
2021/09/21 09:17:10;;;;;;;6.80;4.03;;;;;;;14.84;84.79;101990.56;6252057;23;20317;-80
2021/09/21 09:19:43;;;;;;;8.70;4.43;;;;;;;14.82;84.42;101982.75;6252199;23;20061;-80
2021/09/21 09:22:26;;;;;;;7.10;3.95;;;;;;;14.84;84.40;101982.66;6252088;23;20018;-79
2021/09/21 09:25:00;;;;;;;6.30;4.00;;;;;;;14.82;87.70;101981.84;6216938;23;20078;-80
2021/09/21 09:27:38;;;;;;;6.72;3.95;;;;;;;15.09;86.56;101982.75;6252908;23;20034;-80
2021/09/21 09:30:14;;;;;;;8.02;4.45;;;;;;;15.10;82.55;101981.84;6250847;23;20077;-80
2021/09/21 09:32:47;;;;;;;8.15;4.00;;;;;;;15.27;80.90;101972.50;6249627;23;20037;-79
2021/09/21 09:35:26;;;;;;;8.55;4.15;;;;;;;15.06;82.63;101977.59;6213494;23;20007;-80
2021/09/21 09:37:58;;;;;;;6.43;3.85;;;;;;;15.36;82.58;101981.91;6237790;23;20007;-80
2021/09/21 09:40:30;;;;;;;4.95;3.33;;;;;;;15.44;81.80;101980.75;6213599;23;20007;-80
2021/09/21 09:43:00;;;;;;;5.95;3.80;;;;;;;15.35;82.96;101975.78;6248788;23;20002;-80
2021/09/21 09:45:36;;;;;;;7.70;4.20;;;;;;;15.71;79.41;101985.09;6249270;23;20003;-79
2021/09/21 09:48:10;;;;;;;7.47;4.05;;;;;;;15.55;78.56;101986.50;6251331;23;20031;-80
2021/09/21 09:50:42;;;;;;;7.20;4.05;;;;;;;15.42;81.74;101979.94;6216053;23;20366;-80
2021/09/21 09:53:13;;;;;;;7.28;3.88;;;;;;;15.43;79.65;101991.34;6248910;23;20098;-80
2021/09/21 09:55:48;;;;;;;6.80;4.57;;;;;;;15.95;79.71;101988.66;6250002;23;20031;-80
2021/09/21 09:58:20;;;;;;;6.75;4.15;;;;;;;15.82;78.45;101993.50;6251746;23;20259;-80
2021/09/21 10:00:57;;;;;;;6.72;4.18;;;;;;;15.74;77.17;101984.97;6215787;23;20003;-80
2021/09/21 10:03:28;;;;;;;6.70;3.78;;;;;;;16.31;76.41;101989.97;6250925;23;20000;-80
2021/09/21 10:05:59;;;;;;;5.82;3.58;;;;;;;16.28;76.44;101995.38;6250173;23;20014;-80
2021/09/21 10:08:30;;;;;;;5.22;3.65;;;;;;;16.26;74.07;101998.09;6215302;23;20336;-80
2021/09/21 10:11:00;;;;;;;5.50;3.70;;;;;;;16.64;75.00;101991.41;6215854;23;20436;-79
2021/09/21 10:13:31;;;;;;;7.43;3.80;;;;;;;16.22;78.14;101995.59;6250912;23;20008;-80
2021/09/21 10:16:01;;;;;;;6.43;3.70;;;;;;;16.53;76.71;101986.53;6216149;23;20007;-80
2021/09/21 10:18:32;;;;;;;6.80;3.75;;;;;;;16.61;74.41;101992.41;6251671;23;20008;-80
2021/09/21 10:21:05;;;;;;;5.53;3.58;;;;;;;16.37;75.38;101995.09;6250975;23;20740;-80
2021/09/21 10:23:39;;;;;;;6.03;3.80;;;;;;;16.46;76.96;101995.59;6250986;23;20073;-80
2021/09/21 10:26:17;;;;;;;6.15;3.72;;;;;;;16.74;72.74;101995.44;6217001;23;20038;-80
2021/09/21 10:28:50;;;;;;;6.35;3.65;;;;;;;16.80;74.95;102004.81;6251930;23;20003;-79
2021/09/21 10:31:21;;;;;;;4.88;2.83;;;;;;;16.77;75.78;102003.22;6251082;23;20082;-80
2021/09/21 10:33:51;;;;;;;5.47;3.28;;;;;;;16.83;74.17;102003.84;6214061;23;20053;-80
2021/09/21 10:36:32;;;;;;;6.63;3.40;;;;;;;16.62;73.43;102004.69;6250546;23;20000;-80
2021/09/21 10:39:08;;;;;;;4.80;3.33;;;;;;;16.98;72.40;101997.97;6250384;23;20007;-79
2021/09/21 10:41:59;;;;;;;6.35;3.10;;;;;;;16.91;72.71;102002.63;6250025;23;20430;-80
2021/09/21 10:44:31;;;;;;;4.53;3.03;;;;;;;17.11;72.94;101993.94;6250565;23;20007;-80
2021/09/21 10:47:06;;;;;;;5.30;3.35;;;;;;;17.41;72.24;101987.44;6250674;23;20078;-80
2021/09/21 10:49:38;;;;;;;5.15;3.28;;;;;;;17.48;71.64;101983.63;6250547;23;20728;-80
2021/09/21 10:52:11;;;;;;;5.28;3.05;;;;;;;17.53;71.58;101986.94;6215330;23;20045;-80
2021/09/21 10:54:57;;;;;;;4.60;2.88;;;;;;;17.65;70.26;101997.00;6215297;23;20014;-80
2021/09/21 10:57:31;;;;;;;4.95;2.80;;;;;;;17.88;71.50;101989.81;6251327;23;20000;-80
2021/09/21 11:00:12;;;;;;;4.65;3.00;;;;;;;17.65;70.07;101991.72;6251342;23;20007;-80
2021/09/21 11:02:45;;;;;;;7.47;3.53;;;;;;;17.12;68.69;101991.22;6215667;23;20118;-80
2021/09/21 11:05:18;;;;;;;6.75;3.38;;;;;;;17.46;72.54;101998.69;6250146;23;20003;-80
2021/09/21 11:07:56;;;;;;;4.65;2.78;;;;;;;17.58;71.16;101992.88;6250886;23;20003;-80
2021/09/21 11:10:32;;;;;;;4.78;2.60;;;;;;;17.99;69.69;101986.72;6251075;23;20011;-80
2021/09/21 11:13:10;;;;;;;4.72;2.65;;;;;;;17.44;68.33;101989.94;6250541;23;20157;-80
2021/09/21 11:15:42;;;;;;;4.22;2.90;;;;;;;17.46;69.09;101985.47;6215572;23;20003;-80
2021/09/21 11:18:18;;;;;;;4.60;2.58;;;;;;;17.57;69.09;101972.66;6251110;23;20007;-80
2021/09/21 11:20:51;;;;;;;4.80;3.00;;;;;;;17.38;69.48;101988.44;6251319;23;20280;-80
2021/09/21 11:23:27;;;;;;;4.80;2.65;;;;;;;17.46;69.71;101986.31;6216328;23;20011;-80
2021/09/21 11:26:09;;;;;;;4.90;3.10;;;;;;;17.08;68.15;101989.63;6250472;23;20455;-79
2021/09/21 11:28:44;;;;;;;4.00;2.28;;;;;;;17.36;69.97;101989.41;6252280;23;20011;-80
2021/09/21 11:31:17;;;;;;;4.95;3.05;;;;;;;17.46;69.20;101996.06;6251900;23;20004;-79
2021/09/21 11:33:48;;;;;;;4.70;2.95;;;;;;;17.48;71.07;101988.91;6250259;23;20034;-80
2021/09/21 11:36:18;;;;;;;6.53;2.70;;;;;;;17.32;70.98;101993.91;6251265;23;20018;-79
2021/09/21 11:38:50;;;;;;;4.80;2.63;;;;;;;17.18;69.98;101984.84;6250140;23;20363;-79
2021/09/21 11:41:21;;;;;;;5.47;2.80;;;;;;;17.01;71.08;101985.50;6250030;23;20026;-79
2021/09/21 11:43:52;;;;;;;3.60;2.53;;;;;;;16.78;70.03;101982.06;6250332;23;20003;-79
2021/09/21 11:46:29;;;;;;;4.63;2.40;;;;;;;16.82;70.79;101979.22;6215595;23;20004;-80